Flight Track Log - Related Links

Times and Time Zones

All times are in EDT time to prevent confusion due to time zone crossing. See the ASQ3813 flight status page for this flight to view local times or setup timezone preferences in your user account.

Time Position Orientation Groundspeed Altitude Reporting Facility
EDT Latitude Longitude Course Direction KTS MPH feet Rate Location/Type
Fri 03:20:32 PM 45.8000 -74.0833 254° West 440 506 40,000  Level Toronto Center
Fri 03:21:32 PM 45.7667 -74.2500 254° West 450 518 40,000  Level Toronto Center
Fri 03:22:32 PM 45.7500 -74.4167 262° West 450 518 40,000  Level Toronto Center
Fri 03:23:32 PM 45.7000 -74.6000 249° West 450 518 40,000  Level Toronto Center
Fri 03:24:32 PM 45.6833 -74.7667 262° West 450 518 40,000  Level Toronto Center
Fri 03:25:32 PM 45.6333 -74.9333 247° West 440 506 40,000  Level Toronto Center
Fri 03:26:32 PM 45.6167 -75.1000 262° West 440 506 40,000  Level Toronto Center
Fri 03:27:32 PM 45.5833 -75.2667 254° West 440 506 40,000  Level Toronto Center
Fri 03:28:32 PM 45.5333 -75.4333 247° West 450 518 40,000  Level Toronto Center
Fri 03:29:32 PM 45.5167 -75.6167 263° West 450 518 40,000  Level Toronto Center
Fri 03:30:32 PM 45.4667 -75.7833 247° West 450 518 40,000  Level Toronto Center
Fri 03:31:32 PM 45.4333 -75.9500 254° West 450 518 40,000 -2,827 Level Toronto Center
Fri 03:33:00 PM 45.3798 -76.0694 237° Southwest  Level Estimated
Fri 03:40:00 PM 45.1228 -76.6361 237° Southwest  Level Estimated
Fri 03:41:00 PM 45.0858 -76.7167 237° Southwest  Level Estimated
Fri 03:42:00 PM 45.0488 -76.7971 237° Southwest  Level Estimated
Fri 03:43:00 PM 45.0118 -76.8775 237° Southwest  Level Estimated
Fri 03:44:00 PM 44.9747 -76.9577 237° Southwest  Level Estimated
Fri 03:44:22 PM 40.6667 -74.1833 236° Southwest 189 217 900  Level New York TRACON
Fri 03:45:00 PM 44.9375 -77.0378 237° Southwest  Level Estimated
Fri 03:45:22 PM 40.6333 -74.2333 229° Southwest 228 262 3,000  Level New York TRACON
Fri 03:46:00 PM 44.9003 -77.1179 237° Southwest  Level Estimated
Fri 03:46:55 PM 40.7250 -74.2486 353° North 219 252 6,600  Level New York Center
Fri 03:47:00 PM 44.8433 -77.2398 237° Southwest  Level Estimated
Fri 03:47:56 PM 40.7928 -74.2794 341° North 235 270 7,900  Level New York Center
Fri 03:48:00 PM 44.7863 -77.3615 237° Southwest  Level Estimated
Fri 03:48:56 PM 40.8644 -74.3217 336° Northwest 275 316 8,200  Level New York Center
Fri 03:49:00 PM 44.7291 -77.4830 236° Southwest  Level Estimated
Fri 03:49:56 PM 40.9361 -74.3611 337° Northwest 275 316 10,200  Level New York Center
Fri 03:50:54 PM 41.0150 -74.3736 353° North 275 316 11,600 1,169 Climbing New York Center
Fri 03:51:54 PM 41.1086 -74.3731 360° North 318 366 12,500 1,091 Climbing New York Center
Fri 03:52:55 PM 41.1986 -74.3667 North 350 403 13,800 1,240 Climbing New York Center
Fri 03:53:55 PM 41.3069 -74.3642 North 350 403 15,000 908 Climbing New York Center
Fri 03:54:54 PM 41.4042 -74.3833 352° North 350 403 15,600 908 Climbing New York Center
Fri 03:55:54 PM 41.4653 -74.4944 306° West 338 389 16,800 1,091 Climbing New York Center
Fri 03:56:55 PM 41.5178 -74.6111 301° West 359 413 17,800 1,091 Climbing New York Center
Fri 03:57:55 PM 41.5681 -74.7303 299° West 372 428 19,000 1,109 Climbing New York Center
Fri 03:58:54 PM 41.6200 -74.8556 299° West 377 434 20,000 1,050 Climbing New York Center
Fri 03:59:55 PM 41.6739 -74.9783 300° West 382 440 21,100 1,050 Climbing New York Center
Fri 04:00:54 PM 41.7258 -75.1011 300° West 382 440 22,100 958 Climbing New York Center
Fri 04:01:54 PM 41.7794 -75.2269 300° West 382 440 23,000 885 Climbing New York Center
Fri 04:02:56 PM 41.8308 -75.3528 299° West 382 440 23,900 900 Climbing New York Center
Fri 04:03:54 PM 41.8881 -75.4822 301° West 387 445 24,800 958 Climbing New York Center
Fri 04:04:55 PM 41.9394 -75.6083 299° West 387 445 25,800 590 Climbing New York Center
Fri 04:05:56 PM 41.9925 -75.7350 299° West 387 445 26,000 101 Climbing New York Center
Fri 04:06:54 PM 42.0469 -75.8703 298° West 397 457 26,000  Level New York Center
Fri 04:07:54 PM 42.1056 -76.0092 300° West 409 471 26,000  Level New York Center
Fri 04:10:09 PM 42.2167 -76.3000 297° West 420 483 26,000  Level Toronto Center
Fri 04:11:08 PM 42.2683 -76.4806 291° West 434 499 26,000  Level Cleveland Center
Fri 04:12:08 PM 42.3153 -76.6292 293° West 429 494 26,000  Level Cleveland Center
Fri 04:13:08 PM 42.3619 -76.7781 293° West 429 494 26,000  Level Cleveland Center
Fri 04:14:08 PM 42.4086 -76.9272 293° West 429 494 26,000  Level Cleveland Center
Fri 04:15:08 PM 42.4547 -77.0764 293° West 429 494 26,000  Level Cleveland Center
Fri 04:16:08 PM 42.5011 -77.2261 293° West 429 494 26,000  Level Cleveland Center
Fri 04:17:08 PM 42.5492 -77.3786 293° West 429 494 26,000  Level Cleveland Center
Fri 04:18:08 PM 42.5950 -77.5342 292° West 434 499 26,000  Level Cleveland Center
Fri 04:19:08 PM 42.6386 -77.6872 291° West 434 499 26,000  Level Cleveland Center
Fri 04:20:08 PM 42.6811 -77.8097 295° West 439 505 26,000  Level Cleveland Center
Fri 04:21:08 PM 42.7242 -77.9547 292° West 413 475 26,000  Level Cleveland Center
Fri 04:22:08 PM 42.7603 -78.0778 292° West 379 436 26,000 -300 Level Cleveland Center
Fri 04:23:08 PM 42.7983 -78.2006 293° West 361 415 25,400 -1,050 Descending Cleveland Center
Fri 04:24:08 PM 42.8342 -78.3211 292° West 355 409 23,900 -1,500 Descending Cleveland Center
Fri 04:25:08 PM 42.8697 -78.4417 292° West 344 396 22,400 -1,550 Descending Cleveland Center
Fri 04:26:08 PM 42.8947 -78.5625 286° West 344 396 20,800 -1,550 Descending Cleveland Center
Fri 04:27:08 PM 42.9072 -78.6842 278° West 337 388 19,300 -1,450 Descending Cleveland Center
Fri 04:28:08 PM 42.9508 -78.7933 299° West 330 380 17,900 -1,537 Descending Cleveland Center
Fri 04:29:09 PM 43.0167 -78.8833 315° West 360 414 16,200 -1,587 Descending Toronto Center
Fri 04:30:09 PM 43.0833 -79.0000 308° West 340 391 14,700 -1,500 Descending Toronto Center
Fri 04:31:09 PM 43.1333 -79.0833 309° West 340 391 13,200 -1,350 Descending Toronto Center
Fri 04:32:09 PM 43.2000 -79.1833 312° West 340 391 12,000 -600 Descending Toronto Center
Fri 04:33:09 PM 43.2500 -79.2667 309° West 330 380 12,000  Level Toronto Center
Fri 04:34:09 PM 43.3167 -79.3500 318° Northwest 320 368 12,000 -700 Level Toronto Center
Fri 04:35:09 PM 43.4000 -79.3833 344° North 300 345 10,600 -1,450 Descending Toronto Center
Fri 04:36:09 PM 43.4833 -79.4333 336° Northwest 300 345 9,100 -1,133 Descending Toronto Center
Fri 04:38:09 PM 43.5500 -79.5667 305° West 240 276 7,200 -1,300 Descending Toronto Center
Fri 04:39:09 PM 43.5167 -79.6333 235° Southwest 240 276 5,200 -2,000 Descending Toronto Center
Fri 04:40:09 PM 43.5167 -79.7167 270° West 230 265 3,200 -1,200 Descending Toronto Center
Fri 04:41:09 PM 43.5667 -79.7000 14° North 210 242 2,800 -750 Descending Toronto Center
Fri 04:42:09 PM 43.6167 -79.6500 36° Northeast 190 219 1,700 -950 Descending Toronto Center
Fri 04:43:09 PM 43.6333 -79.6167 55° Northeast 140 161 900 -600 Descending Toronto Center
Fri 04:44:09 PM 43.6667 -79.5833 36° Northeast 140 161 500 -400 Descending Toronto Center

Login

Don't have an account? Register now (free) for customized features, flight alerts, and more!